sim
Sign-in with your pilot id or email,
or register
Callsign
Passwort

Schedule Details

Flight Number: OEO8094
Departure: Vienna International Airport (LOWW) at 09:30
Arrival: Delhi Indira Gandhi International Airport (VIDP) at 16:45

Weather Information
Getting current METAR information for LOWW 271650Z 29008KT 9999 BKN032 09/06 Q1015 NOSIG
Getting current METAR information for VIDP 271700Z 00000KT 2500 FU NSC 21/15 Q1013 NOSIG

Schedule Frequency

Route Map